Time,TemperatureF,DewpointF,PressureIn,WindDirection,WindDirectionDegrees,WindSpeedMPH,WindSpeedGustMPH,Humidity,HourlyPrecipIn,Conditions,Clouds,dailyrainin,SoftwareType,DateUTC
2017-06-29 00:01:00,58.4,13.7,29.52,ENE,60,6.0,6.0,17,0.00,,,0.00,Wunderground v.1.15,2017-06-29 06:01:00,
2017-06-29 00:11:00,58.6,13.9,29.52,ENE,58,6.0,6.0,17,0.00,,,0.00,Wunderground v.1.15,2017-06-29 06:11:00,
2017-06-29 00:21:00,58.7,12.6,29.52,NE,52,6.0,6.0,16,0.00,,,0.00,Wunderground v.1.15,2017-06-29 06:21:00,
2017-06-29 00:31:00,57.8,13.2,29.53,NE,39,3.0,6.0,17,0.00,,,0.00,Wunderground v.1.15,2017-06-29 06:31:00,
2017-06-29 00:41:00,57.1,13.9,29.54,ENE,67,2.0,6.0,18,0.00,,,0.00,Wunderground v.1.15,2017-06-29 06:41:00,
2017-06-29 00:51:00,55.2,14.8,29.54,NNW,347,2.0,2.0,20,0.00,,,0.00,Wunderground v.1.15,2017-06-29 06:51:00,
2017-06-29 01:01:00,53.1,15.2,29.53,ENE,61,2.0,6.0,22,0.00,,,0.00,Wunderground v.1.15,2017-06-29 07:01:00,
2017-06-29 01:11:00,52.4,16.6,29.53,NE,36,3.0,3.0,24,0.00,,,0.00,Wunderground v.1.15,2017-06-29 07:11:00,
2017-06-29 01:21:00,53.7,15.7,29.54,SSW,197,1.0,1.0,22,0.00,,,0.00,Wunderground v.1.15,2017-06-29 07:21:00,
2017-06-29 01:31:00,51.8,16.1,29.54,ENE,65,1.0,1.0,24,0.00,,,0.00,Wunderground v.1.15,2017-06-29 07:31:00,
2017-06-29 01:41:00,50.6,16.9,29.54,ENE,58,0.0,0.0,26,0.00,,,0.00,Wunderground v.1.15,2017-06-29 07:41:00,
2017-06-29 01:51:00,51.1,17.4,29.54,ENE,64,0.0,0.0,26,0.00,,,0.00,Wunderground v.1.15,2017-06-29 07:51:00,
2017-06-29 02:00:00,52.7,16.9,29.54,ENE,72,1.0,1.0,24,0.00,,,0.00,Wunderground v.1.15,2017-06-29 08:00:00,
2017-06-29 02:11:00,53.8,14.7,29.54,ENE,70,0.0,6.0,21,0.00,,,0.00,Wunderground v.1.15,2017-06-29 08:11:00,
2017-06-29 02:21:00,55.9,14.2,29.54,ENE,64,1.0,1.0,19,0.00,,,0.00,Wunderground v.1.15,2017-06-29 08:21:00,
2017-06-29 02:31:00,55.8,16.4,29.55,ENE,63,0.0,6.0,21,0.00,,,0.00,Wunderground v.1.15,2017-06-29 08:31:00,
2017-06-29 02:41:00,55.3,17.0,29.55,East,96,0.0,6.0,22,0.00,,,0.00,Wunderground v.1.15,2017-06-29 08:41:00,
2017-06-29 02:51:00,54.4,17.3,29.55,ENE,65,0.0,6.0,23,0.00,,,0.00,Wunderground v.1.15,2017-06-29 08:51:00,
2017-06-29 03:01:00,54.2,17.1,29.55,NE,36,0.0,6.0,23,0.00,,,0.00,Wunderground v.1.15,2017-06-29 09:01:00,
2017-06-29 03:11:00,53.7,17.7,29.55,NE,38,0.0,6.0,24,0.00,,,0.00,Wunderground v.1.15,2017-06-29 09:11:00,
2017-06-29 03:21:00,51.8,18.8,29.56,NE,44,0.0,6.0,27,0.00,,,0.00,Wunderground v.1.15,2017-06-29 09:21:00,
2017-06-29 03:31:00,51.0,19.0,29.56,NNE,30,0.0,6.0,28,0.00,,,0.00,Wunderground v.1.15,2017-06-29 09:31:00,
2017-06-29 03:41:00,51.2,18.3,29.56,NE,35,0.0,6.0,27,0.00,,,0.00,Wunderground v.1.15,2017-06-29 09:41:00,
2017-06-29 03:51:00,51.2,19.2,29.56,NE,38,0.0,6.0,28,0.00,,,0.00,Wunderground v.1.15,2017-06-29 09:51:00,
2017-06-29 04:01:00,51.4,18.5,29.57,NNE,27,0.0,6.0,27,0.00,,,0.00,Wunderground v.1.15,2017-06-29 10:01:00,
2017-06-29 04:11:00,52.7,18.7,29.57,NE,44,0.0,6.0,26,0.00,,,0.00,Wunderground v.1.15,2017-06-29 10:11:00,
2017-06-29 04:21:00,51.6,20.3,29.58,NE,35,0.0,6.0,29,0.00,,,0.00,Wunderground v.1.15,2017-06-29 10:21:00,
2017-06-29 04:31:00,51.4,21.7,29.58,ENE,65,0.0,6.0,31,0.00,,,0.00,Wunderground v.1.15,2017-06-29 10:31:00,
2017-06-29 04:41:00,51.8,22.1,29.58,ENE,63,0.0,6.0,31,0.00,,,0.00,Wunderground v.1.15,2017-06-29 10:41:00,
2017-06-29 04:51:00,52.2,22.4,29.58,NE,39,0.0,6.0,31,0.00,,,0.00,Wunderground v.1.15,2017-06-29 10:51:00,
2017-06-29 05:01:00,52.7,22.1,29.59,ENE,65,0.0,6.0,30,0.00,,,0.00,Wunderground v.1.15,2017-06-29 11:01:00,
2017-06-29 05:11:00,50.7,21.9,29.59,ENE,66,0.0,6.0,32,0.00,,,0.00,Wunderground v.1.15,2017-06-29 11:11:00,
2017-06-29 05:21:00,49.0,21.8,29.59,ENE,61,0.0,6.0,34,0.00,,,0.00,Wunderground v.1.15,2017-06-29 11:21:00,
2017-06-29 05:31:00,49.3,22.1,29.60,ENE,57,0.0,6.0,34,0.00,,,0.00,Wunderground v.1.15,2017-06-29 11:31:00,
2017-06-29 05:41:00,48.7,22.2,29.60,ENE,65,0.0,6.0,35,0.00,,,0.00,Wunderground v.1.15,2017-06-29 11:41:00,
2017-06-29 05:51:00,49.1,22.6,29.61,ENE,61,0.0,6.0,35,0.00,,,0.00,Wunderground v.1.15,2017-06-29 11:51:00,
2017-06-29 06:01:00,48.4,22.6,29.61,ENE,65,0.0,6.0,36,0.00,,,0.00,Wunderground v.1.15,2017-06-29 12:01:00,
2017-06-29 06:11:00,48.3,23.8,29.61,ENE,61,0.0,6.0,38,0.00,,,0.00,Wunderground v.1.15,2017-06-29 12:11:00,
2017-06-29 06:21:00,48.8,24.3,29.62,ENE,68,0.0,6.0,38,0.00,,,0.00,Wunderground v.1.15,2017-06-29 12:21:00,
2017-06-29 06:31:00,49.4,25.4,29.62,ENE,65,0.0,6.0,39,0.00,,,0.00,Wunderground v.1.15,2017-06-29 12:31:00,
2017-06-29 06:41:00,49.1,25.2,29.63,ENE,65,0.0,6.0,39,0.00,,,0.00,Wunderground v.1.15,2017-06-29 12:41:00,
2017-06-29 06:51:00,51.4,26.6,29.63,NE,53,0.0,6.0,38,0.00,,,0.00,Wunderground v.1.15,2017-06-29 12:51:00,
2017-06-29 07:01:00,55.3,28.1,29.63,ENE,60,0.0,6.0,35,0.00,,,0.00,Wunderground v.1.15,2017-06-29 13:01:00,
2017-06-29 07:11:00,58.4,30.1,29.63,ENE,71,0.0,0.0,34,0.00,,,0.00,Wunderground v.1.15,2017-06-29 13:11:00,
2017-06-29 07:21:00,62.7,27.3,29.63,ESE,107,0.0,0.0,26,0.00,,,0.00,Wunderground v.1.15,2017-06-29 13:21:00,
2017-06-29 07:31:00,65.2,27.5,29.64,ESE,113,0.0,0.0,24,0.00,,,0.00,Wunderground v.1.15,2017-06-29 13:31:00,
2017-06-29 07:41:00,66.2,28.3,29.64,East,100,0.0,0.0,24,0.00,,,0.00,Wunderground v.1.15,2017-06-29 13:41:00,
2017-06-29 07:51:00,67.3,27.1,29.64,SSE,156,0.0,0.0,22,0.00,,,0.00,Wunderground v.1.15,2017-06-29 13:51:00,
2017-06-29 08:01:00,67.7,27.5,29.65,ENE,75,0.0,0.0,22,0.00,,,0.00,Wunderground v.1.15,2017-06-29 14:01:00,
2017-06-29 08:11:00,68.4,28.0,29.65,ESE,119,0.0,0.0,22,0.00,,,0.00,Wunderground v.1.15,2017-06-29 14:11:00,
2017-06-29 08:21:00,68.8,26.1,29.65,ESE,110,0.0,0.0,20,0.00,,,0.00,Wunderground v.1.15,2017-06-29 14:21:00,
2017-06-29 08:31:00,69.2,26.4,29.65,SE,127,0.0,0.0,20,0.00,,,0.00,Wunderground v.1.15,2017-06-29 14:31:00,
2017-06-29 08:41:00,69.7,26.8,29.65,SE,124,0.0,0.0,20,0.00,,,0.00,Wunderground v.1.15,2017-06-29 14:41:00,
2017-06-29 08:51:00,69.8,26.9,29.64,ESE,123,0.0,0.0,20,0.00,,,0.00,Wunderground v.1.15,2017-06-29 14:51:00,
2017-06-29 09:01:00,70.9,26.5,29.64,East,81,0.0,0.0,19,0.00,,,0.00,Wunderground v.1.15,2017-06-29 15:01:00,
2017-06-29 09:11:00,71.1,26.7,29.64,WSW,242,0.0,0.0,19,0.00,,,0.00,Wunderground v.1.15,2017-06-29 15:11:00,
2017-06-29 09:21:00,72.0,27.5,29.64,SSE,157,0.0,0.0,19,0.00,,,0.00,Wunderground v.1.15,2017-06-29 15:21:00,
2017-06-29 09:31:00,72.2,27.6,29.64,SE,136,0.0,0.0,19,0.00,,,0.00,Wunderground v.1.15,2017-06-29 15:31:00,
2017-06-29 09:40:00,72.8,29.4,29.63,East,94,0.0,0.0,20,0.00,,,0.00,Wunderground v.1.15,2017-06-29 15:40:00,
2017-06-29 09:51:00,74.0,27.8,29.63,NNW,340,0.0,0.0,18,0.00,,,0.00,Wunderground v.1.15,2017-06-29 15:51:00,
2017-06-29 10:00:00,74.3,26.6,29.63,South,187,0.0,0.0,17,0.00,,,0.00,Wunderground v.1.15,2017-06-29 16:00:00,
2017-06-29 10:11:00,74.0,26.4,29.62,WSW,238,0.0,0.0,17,0.00,,,0.00,Wunderground v.1.15,2017-06-29 16:11:00,
2017-06-29 10:21:00,75.4,28.9,29.62,South,176,0.0,0.0,18,0.00,,,0.00,Wunderground v.1.15,2017-06-29 16:21:00,
2017-06-29 10:31:00,76.0,26.5,29.62,SW,228,0.0,0.0,16,0.00,,,0.00,Wunderground v.1.15,2017-06-29 16:31:00,
2017-06-29 10:41:00,76.1,26.6,29.62,SW,233,0.0,0.0,16,0.00,,,0.00,Wunderground v.1.15,2017-06-29 16:41:00,
2017-06-29 10:51:00,76.9,25.7,29.62,ESE,113,0.0,0.0,15,0.00,,,0.00,Wunderground v.1.15,2017-06-29 16:51:00,
2017-06-29 11:01:00,77.2,24.3,29.62,SSE,168,0.0,0.0,14,0.00,,,0.00,Wunderground v.1.15,2017-06-29 17:01:00,
2017-06-29 11:11:00,78.3,28.4,29.61,South,182,1.0,1.0,16,0.00,,,0.00,Wunderground v.1.15,2017-06-29 17:11:00,
2017-06-29 11:21:00,77.4,24.4,29.62,SE,141,0.0,0.0,14,0.00,,,0.00,Wunderground v.1.15,2017-06-29 17:21:00,
2017-06-29 11:31:00,78.4,26.9,29.61,SSE,156,0.0,0.0,15,0.00,,,0.00,Wunderground v.1.15,2017-06-29 17:31:00,